sensor_id;sensor_type;location;lat;lon;timestamp;temperature;humidity
14236;DHT22;7202;50.718;7.072;2022-08-19T00:00:10;19.10;99.90
14236;DHT22;7202;50.718;7.072;2022-08-19T00:02:43;19.10;99.90
14236;DHT22;7202;50.718;7.072;2022-08-19T00:05:19;19.10;99.90
14236;DHT22;7202;50.718;7.072;2022-08-19T00:07:48;19.00;99.90
14236;DHT22;7202;50.718;7.072;2022-08-19T00:10:18;19.00;99.90
14236;DHT22;7202;50.718;7.072;2022-08-19T00:12:48;19.00;99.90
14236;DHT22;7202;50.718;7.072;2022-08-19T00:15:18;19.00;99.90
14236;DHT22;7202;50.718;7.072;2022-08-19T00:17:48;18.90;99.90
14236;DHT22;7202;50.718;7.072;2022-08-19T00:20:20;18.90;99.90
14236;DHT22;7202;50.718;7.072;2022-08-19T00:22:49;18.90;99.90
14236;DHT22;7202;50.718;7.072;2022-08-19T00:25:19;18.90;99.90
14236;DHT22;7202;50.718;7.072;2022-08-19T00:27:57;18.80;99.90
14236;DHT22;7202;50.718;7.072;2022-08-19T00:30:26;18.80;99.90
14236;DHT22;7202;50.718;7.072;2022-08-19T00:32:55;18.80;99.90
14236;DHT22;7202;50.718;7.072;2022-08-19T00:35:25;18.80;99.90
14236;DHT22;7202;50.718;7.072;2022-08-19T00:37:55;18.70;99.90
14236;DHT22;7202;50.718;7.072;2022-08-19T00:40:24;18.70;99.90
14236;DHT22;7202;50.718;7.072;2022-08-19T00:42:52;18.70;99.90
14236;DHT22;7202;50.718;7.072;2022-08-19T00:45:24;18.70;99.90
14236;DHT22;7202;50.718;7.072;2022-08-19T00:47:54;18.70;99.90
14236;DHT22;7202;50.718;7.072;2022-08-19T00:50:25;18.70;99.90
14236;DHT22;7202;50.718;7.072;2022-08-19T00:52:55;18.70;99.90
14236;DHT22;7202;50.718;7.072;2022-08-19T00:55:26;18.60;99.90
14236;DHT22;7202;50.718;7.072;2022-08-19T00:57:59;18.60;99.90
14236;DHT22;7202;50.718;7.072;2022-08-19T01:00:30;18.60;99.90
14236;DHT22;7202;50.718;7.072;2022-08-19T01:02:59;18.60;99.90
14236;DHT22;7202;50.718;7.072;2022-08-19T01:05:29;18.60;99.90
14236;DHT22;7202;50.718;7.072;2022-08-19T01:08:00;18.60;99.90
14236;DHT22;7202;50.718;7.072;2022-08-19T01:10:32;18.60;99.90
14236;DHT22;7202;50.718;7.072;2022-08-19T01:13:04;18.60;99.90
14236;DHT22;7202;50.718;7.072;2022-08-19T01:15:35;18.60;99.90
14236;DHT22;7202;50.718;7.072;2022-08-19T01:18:09;18.50;99.90
14236;DHT22;7202;50.718;7.072;2022-08-19T01:20:41;18.50;99.90
14236;DHT22;7202;50.718;7.072;2022-08-19T01:23:12;18.50;99.90
14236;DHT22;7202;50.718;7.072;2022-08-19T01:25:44;18.40;99.90
14236;DHT22;7202;50.718;7.072;2022-08-19T01:28:19;18.40;99.90
14236;DHT22;7202;50.718;7.072;2022-08-19T01:31:13;18.30;99.90
14236;DHT22;7202;50.718;7.072;2022-08-19T01:33:56;18.30;99.90
14236;DHT22;7202;50.718;7.072;2022-08-19T01:36:27;18.30;99.90
14236;DHT22;7202;50.718;7.072;2022-08-19T01:38:59;18.30;99.90
14236;DHT22;7202;50.718;7.072;2022-08-19T01:41:28;18.30;99.90
14236;DHT22;7202;50.718;7.072;2022-08-19T01:43:56;18.20;99.90
14236;DHT22;7202;50.718;7.072;2022-08-19T01:46:47;18.20;99.90
14236;DHT22;7202;50.718;7.072;2022-08-19T01:49:20;18.20;99.90
14236;DHT22;7202;50.718;7.072;2022-08-19T01:51:49;18.20;99.90
14236;DHT22;7202;50.718;7.072;2022-08-19T01:54:22;18.20;99.90
14236;DHT22;7202;50.718;7.072;2022-08-19T01:56:58;18.20;99.90
14236;DHT22;7202;50.718;7.072;2022-08-19T01:59:28;18.20;99.90
14236;DHT22;7202;50.718;7.072;2022-08-19T02:01:57;18.20;99.90
14236;DHT22;7202;50.718;7.072;2022-08-19T02:04:26;18.20;99.90
14236;DHT22;7202;50.718;7.072;2022-08-19T02:06:54;18.20;99.90
14236;DHT22;7202;50.718;7.072;2022-08-19T02:09:24;18.20;99.90
14236;DHT22;7202;50.718;7.072;2022-08-19T02:11:53;18.20;99.90
14236;DHT22;7202;50.718;7.072;2022-08-19T02:14:21;18.20;99.90
14236;DHT22;7202;50.718;7.072;2022-08-19T02:16:50;18.20;99.90
14236;DHT22;7202;50.718;7.072;2022-08-19T02:19:19;18.10;99.90
14236;DHT22;7202;50.718;7.072;2022-08-19T02:21:47;18.10;99.90
14236;DHT22;7202;50.718;7.072;2022-08-19T02:24:16;18.10;99.90
14236;DHT22;7202;50.718;7.072;2022-08-19T02:26:46;18.10;99.90
14236;DHT22;7202;50.718;7.072;2022-08-19T02:29:14;18.00;99.90
14236;DHT22;7202;50.718;7.072;2022-08-19T02:31:43;18.00;99.90
14236;DHT22;7202;50.718;7.072;2022-08-19T02:34:12;18.00;99.90
14236;DHT22;7202;50.718;7.072;2022-08-19T02:36:40;18.00;99.90
14236;DHT22;7202;50.718;7.072;2022-08-19T02:39:09;18.00;99.90
14236;DHT22;7202;50.718;7.072;2022-08-19T02:41:37;18.00;99.90
14236;DHT22;7202;50.718;7.072;2022-08-19T02:44:07;18.00;99.90
14236;DHT22;7202;50.718;7.072;2022-08-19T02:46:56;18.00;99.90
14236;DHT22;7202;50.718;7.072;2022-08-19T02:49:25;18.00;99.90
14236;DHT22;7202;50.718;7.072;2022-08-19T02:51:53;18.00;99.90
14236;DHT22;7202;50.718;7.072;2022-08-19T02:54:22;18.00;99.90
14236;DHT22;7202;50.718;7.072;2022-08-19T02:56:50;18.00;99.90
14236;DHT22;7202;50.718;7.072;2022-08-19T02:59:20;17.90;99.90
14236;DHT22;7202;50.718;7.072;2022-08-19T03:01:49;17.90;99.90
14236;DHT22;7202;50.718;7.072;2022-08-19T03:04:18;17.90;99.90
14236;DHT22;7202;50.718;7.072;2022-08-19T03:06:48;17.90;99.90
14236;DHT22;7202;50.718;7.072;2022-08-19T03:09:18;17.90;99.90
14236;DHT22;7202;50.718;7.072;2022-08-19T03:11:47;17.90;99.90
14236;DHT22;7202;50.718;7.072;2022-08-19T03:14:20;17.90;99.90
14236;DHT22;7202;50.718;7.072;2022-08-19T03:16:51;17.90;99.90
14236;DHT22;7202;50.718;7.072;2022-08-19T03:19:20;17.80;99.90
14236;DHT22;7202;50.718;7.072;2022-08-19T03:21:50;17.90;99.90
14236;DHT22;7202;50.718;7.072;2022-08-19T03:24:19;17.90;99.90
14236;DHT22;7202;50.718;7.072;2022-08-19T03:26:50;17.90;99.90
14236;DHT22;7202;50.718;7.072;2022-08-19T03:29:20;17.90;99.90
14236;DHT22;7202;50.718;7.072;2022-08-19T03:31:58;17.80;99.90
14236;DHT22;7202;50.718;7.072;2022-08-19T03:34:30;17.80;99.90
14236;DHT22;7202;50.718;7.072;2022-08-19T03:37:03;17.80;99.90
14236;DHT22;7202;50.718;7.072;2022-08-19T03:39:32;17.80;99.90
14236;DHT22;7202;50.718;7.072;2022-08-19T03:42:00;17.70;99.90
14236;DHT22;7202;50.718;7.072;2022-08-19T03:44:51;17.80;99.90
14236;DHT22;7202;50.718;7.072;2022-08-19T03:47:20;17.70;99.90
14236;DHT22;7202;50.718;7.072;2022-08-19T03:49:49;17.80;99.90
14236;DHT22;7202;50.718;7.072;2022-08-19T03:52:17;17.80;99.90
14236;DHT22;7202;50.718;7.072;2022-08-19T03:54:46;17.80;99.90
14236;DHT22;7202;50.718;7.072;2022-08-19T03:57:15;17.70;99.90
14236;DHT22;7202;50.718;7.072;2022-08-19T03:59:43;17.70;99.90
14236;DHT22;7202;50.718;7.072;2022-08-19T04:02:14;17.70;99.90
14236;DHT22;7202;50.718;7.072;2022-08-19T04:04:43;17.70;99.90
14236;DHT22;7202;50.718;7.072;2022-08-19T04:07:13;17.70;99.90
14236;DHT22;7202;50.718;7.072;2022-08-19T04:09:43;17.60;99.90
14236;DHT22;7202;50.718;7.072;2022-08-19T04:12:12;17.60;99.90
14236;DHT22;7202;50.718;7.072;2022-08-19T04:14:41;17.60;99.90
14236;DHT22;7202;50.718;7.072;2022-08-19T04:17:09;17.60;99.90
14236;DHT22;7202;50.718;7.072;2022-08-19T04:19:41;17.60;99.90
14236;DHT22;7202;50.718;7.072;2022-08-19T04:22:11;17.60;99.90
14236;DHT22;7202;50.718;7.072;2022-08-19T04:24:39;17.60;99.90
14236;DHT22;7202;50.718;7.072;2022-08-19T04:27:08;17.60;99.90
14236;DHT22;7202;50.718;7.072;2022-08-19T04:29:37;17.60;99.90
14236;DHT22;7202;50.718;7.072;2022-08-19T04:32:06;17.60;99.90
14236;DHT22;7202;50.718;7.072;2022-08-19T04:34:37;17.60;99.90
14236;DHT22;7202;50.718;7.072;2022-08-19T04:37:27;17.50;99.90
14236;DHT22;7202;50.718;7.072;2022-08-19T04:40:04;17.50;99.90
14236;DHT22;7202;50.718;7.072;2022-08-19T04:42:51;17.50;99.90
14236;DHT22;7202;50.718;7.072;2022-08-19T04:45:21;17.60;99.90
14236;DHT22;7202;50.718;7.072;2022-08-19T04:47:54;17.50;99.90
14236;DHT22;7202;50.718;7.072;2022-08-19T04:50:44;17.50;99.90
14236;DHT22;7202;50.718;7.072;2022-08-19T04:53:14;17.50;99.90
14236;DHT22;7202;50.718;7.072;2022-08-19T04:55:43;17.50;99.90
14236;DHT22;7202;50.718;7.072;2022-08-19T04:58:12;17.50;99.90
14236;DHT22;7202;50.718;7.072;2022-08-19T05:00:41;17.50;99.90
14236;DHT22;7202;50.718;7.072;2022-08-19T05:03:10;17.50;99.90
14236;DHT22;7202;50.718;7.072;2022-08-19T05:05:40;17.60;99.90
14236;DHT22;7202;50.718;7.072;2022-08-19T05:08:14;17.60;99.90
14236;DHT22;7202;50.718;7.072;2022-08-19T05:10:58;17.60;99.90
14236;DHT22;7202;50.718;7.072;2022-08-19T05:13:27;17.60;99.90
14236;DHT22;7202;50.718;7.072;2022-08-19T05:15:57;17.60;99.90
14236;DHT22;7202;50.718;7.072;2022-08-19T05:18:26;17.70;99.90
14236;DHT22;7202;50.718;7.072;2022-08-19T05:21:14;17.70;99.90
14236;DHT22;7202;50.718;7.072;2022-08-19T05:24:03;17.70;99.90
14236;DHT22;7202;50.718;7.072;2022-08-19T05:26:36;17.80;99.90
14236;DHT22;7202;50.718;7.072;2022-08-19T05:29:05;17.80;99.90
14236;DHT22;7202;50.718;7.072;2022-08-19T05:31:37;17.80;99.90
14236;DHT22;7202;50.718;7.072;2022-08-19T05:34:09;17.90;99.90
14236;DHT22;7202;50.718;7.072;2022-08-19T05:36:47;17.90;99.90
14236;DHT22;7202;50.718;7.072;2022-08-19T05:39:19;18.00;99.90
14236;DHT22;7202;50.718;7.072;2022-08-19T05:41:50;18.00;99.90
14236;DHT22;7202;50.718;7.072;2022-08-19T05:44:20;18.10;99.90
14236;DHT22;7202;50.718;7.072;2022-08-19T05:46:49;18.10;99.90
14236;DHT22;7202;50.718;7.072;2022-08-19T05:49:21;18.10;99.90
14236;DHT22;7202;50.718;7.072;2022-08-19T05:51:51;18.20;99.90
14236;DHT22;7202;50.718;7.072;2022-08-19T05:54:22;18.20;99.90
14236;DHT22;7202;50.718;7.072;2022-08-19T05:56:52;18.20;99.90
14236;DHT22;7202;50.718;7.072;2022-08-19T05:59:21;18.30;99.90
14236;DHT22;7202;50.718;7.072;2022-08-19T06:01:52;18.30;99.90
14236;DHT22;7202;50.718;7.072;2022-08-19T06:04:23;18.30;99.90
14236;DHT22;7202;50.718;7.072;2022-08-19T06:06:53;18.30;99.90
14236;DHT22;7202;50.718;7.072;2022-08-19T06:09:23;18.40;99.90
14236;DHT22;7202;50.718;7.072;2022-08-19T06:11:53;18.40;99.90
14236;DHT22;7202;50.718;7.072;2022-08-19T06:14:26;18.40;99.90
14236;DHT22;7202;50.718;7.072;2022-08-19T06:16:56;18.50;99.90
14236;DHT22;7202;50.718;7.072;2022-08-19T06:19:25;18.50;99.90
14236;DHT22;7202;50.718;7.072;2022-08-19T06:21:54;18.50;99.90
14236;DHT22;7202;50.718;7.072;2022-08-19T06:24:26;18.60;99.90
14236;DHT22;7202;50.718;7.072;2022-08-19T06:26:57;18.60;99.90
14236;DHT22;7202;50.718;7.072;2022-08-19T06:29:28;18.60;99.90
14236;DHT22;7202;50.718;7.072;2022-08-19T06:32:00;18.70;99.90
14236;DHT22;7202;50.718;7.072;2022-08-19T06:34:32;18.80;99.90
14236;DHT22;7202;50.718;7.072;2022-08-19T06:37:01;18.80;99.90
14236;DHT22;7202;50.718;7.072;2022-08-19T06:39:33;18.90;99.90
14236;DHT22;7202;50.718;7.072;2022-08-19T06:42:04;19.00;99.90
14236;DHT22;7202;50.718;7.072;2022-08-19T06:44:39;19.10;99.90
14236;DHT22;7202;50.718;7.072;2022-08-19T06:47:12;19.20;99.90
14236;DHT22;7202;50.718;7.072;2022-08-19T06:49:53;19.30;99.90
14236;DHT22;7202;50.718;7.072;2022-08-19T06:52:27;19.40;99.90
14236;DHT22;7202;50.718;7.072;2022-08-19T06:54:57;19.50;99.90
14236;DHT22;7202;50.718;7.072;2022-08-19T06:57:27;19.50;99.90
14236;DHT22;7202;50.718;7.072;2022-08-19T06:59:59;19.60;99.90
14236;DHT22;7202;50.718;7.072;2022-08-19T07:02:28;19.60;99.90
14236;DHT22;7202;50.718;7.072;2022-08-19T07:04:57;19.60;99.90
14236;DHT22;7202;50.718;7.072;2022-08-19T07:07:27;19.60;99.90
14236;DHT22;7202;50.718;7.072;2022-08-19T07:09:56;19.60;99.90
14236;DHT22;7202;50.718;7.072;2022-08-19T07:12:31;19.70;99.90
14236;DHT22;7202;50.718;7.072;2022-08-19T07:15:03;19.70;99.90
14236;DHT22;7202;50.718;7.072;2022-08-19T07:17:32;19.80;99.90
14236;DHT22;7202;50.718;7.072;2022-08-19T07:20:02;19.80;99.90
14236;DHT22;7202;50.718;7.072;2022-08-19T07:22:36;19.90;99.90
14236;DHT22;7202;50.718;7.072;2022-08-19T07:25:08;19.90;99.90
14236;DHT22;7202;50.718;7.072;2022-08-19T07:27:37;20.00;99.90
14236;DHT22;7202;50.718;7.072;2022-08-19T07:30:07;20.10;99.90
14236;DHT22;7202;50.718;7.072;2022-08-19T07:32:39;20.20;99.90
14236;DHT22;7202;50.718;7.072;2022-08-19T07:35:09;20.30;99.90
14236;DHT22;7202;50.718;7.072;2022-08-19T07:37:37;20.30;99.90
14236;DHT22;7202;50.718;7.072;2022-08-19T07:40:12;20.40;99.90
14236;DHT22;7202;50.718;7.072;2022-08-19T07:42:41;20.50;99.90
14236;DHT22;7202;50.718;7.072;2022-08-19T07:45:11;20.70;99.90
14236;DHT22;7202;50.718;7.072;2022-08-19T07:47:39;20.80;99.90
14236;DHT22;7202;50.718;7.072;2022-08-19T07:50:18;20.80;99.90
14236;DHT22;7202;50.718;7.072;2022-08-19T07:52:49;20.90;99.90
14236;DHT22;7202;50.718;7.072;2022-08-19T07:55:22;21.00;99.90
14236;DHT22;7202;50.718;7.072;2022-08-19T07:58:07;21.10;99.90
14236;DHT22;7202;50.718;7.072;2022-08-19T08:00:37;21.20;99.90
14236;DHT22;7202;50.718;7.072;2022-08-19T08:03:05;21.30;99.90
14236;DHT22;7202;50.718;7.072;2022-08-19T08:05:35;21.40;99.90
14236;DHT22;7202;50.718;7.072;2022-08-19T08:08:21;21.40;99.90
14236;DHT22;7202;50.718;7.072;2022-08-19T08:11:17;21.50;99.90
14236;DHT22;7202;50.718;7.072;2022-08-19T08:13:47;21.60;99.90
14236;DHT22;7202;50.718;7.072;2022-08-19T08:16:33;21.70;99.90
14236;DHT22;7202;50.718;7.072;2022-08-19T08:19:06;21.80;99.90
14236;DHT22;7202;50.718;7.072;2022-08-19T08:21:52;21.80;99.90
14236;DHT22;7202;50.718;7.072;2022-08-19T08:24:22;21.90;99.90
14236;DHT22;7202;50.718;7.072;2022-08-19T08:26:57;22.00;99.90
14236;DHT22;7202;50.718;7.072;2022-08-19T08:29:26;22.10;99.90
14236;DHT22;7202;50.718;7.072;2022-08-19T08:32:02;22.20;99.90
14236;DHT22;7202;50.718;7.072;2022-08-19T08:34:40;22.30;99.90
14236;DHT22;7202;50.718;7.072;2022-08-19T08:37:09;22.40;99.90
14236;DHT22;7202;50.718;7.072;2022-08-19T08:39:38;22.30;99.90
14236;DHT22;7202;50.718;7.072;2022-08-19T08:42:13;22.40;99.90
14236;DHT22;7202;50.718;7.072;2022-08-19T08:44:49;22.50;99.90
14236;DHT22;7202;50.718;7.072;2022-08-19T08:47:26;22.60;99.90
14236;DHT22;7202;50.718;7.072;2022-08-19T08:50:02;22.60;99.90
14236;DHT22;7202;50.718;7.072;2022-08-19T08:52:34;22.70;99.90
14236;DHT22;7202;50.718;7.072;2022-08-19T08:55:12;22.70;99.90
14236;DHT22;7202;50.718;7.072;2022-08-19T08:57:52;22.80;99.90
14236;DHT22;7202;50.718;7.072;2022-08-19T09:00:26;22.80;99.90
14236;DHT22;7202;50.718;7.072;2022-08-19T09:02:58;22.90;99.90
14236;DHT22;7202;50.718;7.072;2022-08-19T09:05:40;22.90;99.90
14236;DHT22;7202;50.718;7.072;2022-08-19T09:08:22;22.90;99.90
14236;DHT22;7202;50.718;7.072;2022-08-19T09:10:57;22.90;99.90
14236;DHT22;7202;50.718;7.072;2022-08-19T09:13:32;22.90;99.90
14236;DHT22;7202;50.718;7.072;2022-08-19T09:16:06;23.00;99.90
14236;DHT22;7202;50.718;7.072;2022-08-19T09:18:42;23.00;99.90
14236;DHT22;7202;50.718;7.072;2022-08-19T09:21:13;23.10;99.90
14236;DHT22;7202;50.718;7.072;2022-08-19T09:23:43;23.20;99.90
14236;DHT22;7202;50.718;7.072;2022-08-19T09:26:20;23.20;99.90
14236;DHT22;7202;50.718;7.072;2022-08-19T09:28:52;23.30;99.90
14236;DHT22;7202;50.718;7.072;2022-08-19T09:31:27;23.40;99.90
14236;DHT22;7202;50.718;7.072;2022-08-19T09:33:56;23.40;99.90
14236;DHT22;7202;50.718;7.072;2022-08-19T09:36:26;23.40;99.90
14236;DHT22;7202;50.718;7.072;2022-08-19T09:39:02;23.50;99.90
14236;DHT22;7202;50.718;7.072;2022-08-19T09:41:42;23.60;99.90
14236;DHT22;7202;50.718;7.072;2022-08-19T09:44:17;23.60;99.90
14236;DHT22;7202;50.718;7.072;2022-08-19T09:46:48;23.70;99.90
14236;DHT22;7202;50.718;7.072;2022-08-19T09:49:19;23.70;99.90
14236;DHT22;7202;50.718;7.072;2022-08-19T09:51:51;23.70;99.90
14236;DHT22;7202;50.718;7.072;2022-08-19T09:54:23;23.80;99.90
14236;DHT22;7202;50.718;7.072;2022-08-19T09:56:53;23.80;99.90
14236;DHT22;7202;50.718;7.072;2022-08-19T09:59:23;23.80;99.90
14236;DHT22;7202;50.718;7.072;2022-08-19T10:01:52;23.90;99.90
14236;DHT22;7202;50.718;7.072;2022-08-19T10:04:29;23.90;99.90
14236;DHT22;7202;50.718;7.072;2022-08-19T10:07:13;24.00;99.90
14236;DHT22;7202;50.718;7.072;2022-08-19T10:09:41;24.00;99.90
14236;DHT22;7202;50.718;7.072;2022-08-19T10:12:13;24.00;99.90
14236;DHT22;7202;50.718;7.072;2022-08-19T10:14:48;24.10;99.90
14236;DHT22;7202;50.718;7.072;2022-08-19T10:17:18;24.20;99.90
14236;DHT22;7202;50.718;7.072;2022-08-19T10:19:52;24.20;99.90
14236;DHT22;7202;50.718;7.072;2022-08-19T10:22:23;24.20;99.90
14236;DHT22;7202;50.718;7.072;2022-08-19T10:24:52;24.30;99.90
14236;DHT22;7202;50.718;7.072;2022-08-19T10:27:21;24.40;99.90
14236;DHT22;7202;50.718;7.072;2022-08-19T10:29:54;24.50;99.90
14236;DHT22;7202;50.718;7.072;2022-08-19T10:32:25;24.60;99.90
14236;DHT22;7202;50.718;7.072;2022-08-19T10:35:01;24.60;99.90
14236;DHT22;7202;50.718;7.072;2022-08-19T10:37:32;24.70;99.90
14236;DHT22;7202;50.718;7.072;2022-08-19T10:40:03;24.70;99.90
14236;DHT22;7202;50.718;7.072;2022-08-19T10:42:32;24.80;99.90
14236;DHT22;7202;50.718;7.072;2022-08-19T10:45:02;24.80;99.90
14236;DHT22;7202;50.718;7.072;2022-08-19T10:47:31;24.80;99.90
14236;DHT22;7202;50.718;7.072;2022-08-19T10:50:00;24.80;99.90
14236;DHT22;7202;50.718;7.072;2022-08-19T10:52:48;24.80;99.90
14236;DHT22;7202;50.718;7.072;2022-08-19T10:55:19;25.00;99.90
14236;DHT22;7202;50.718;7.072;2022-08-19T10:58:11;25.00;99.90
14236;DHT22;7202;50.718;7.072;2022-08-19T11:00:42;25.10;99.90
14236;DHT22;7202;50.718;7.072;2022-08-19T11:03:11;25.10;99.90
14236;DHT22;7202;50.718;7.072;2022-08-19T11:05:40;25.00;99.90
14236;DHT22;7202;50.718;7.072;2022-08-19T11:08:09;25.00;99.90
14236;DHT22;7202;50.718;7.072;2022-08-19T11:10:51;25.10;99.90
14236;DHT22;7202;50.718;7.072;2022-08-19T11:13:26;25.20;99.90
14236;DHT22;7202;50.718;7.072;2022-08-19T11:16:02;25.30;99.90
14236;DHT22;7202;50.718;7.072;2022-08-19T11:18:37;25.50;99.90
14236;DHT22;7202;50.718;7.072;2022-08-19T11:21:08;25.60;99.90
14236;DHT22;7202;50.718;7.072;2022-08-19T11:23:38;25.60;99.90
14236;DHT22;7202;50.718;7.072;2022-08-19T11:26:07;25.50;99.90
14236;DHT22;7202;50.718;7.072;2022-08-19T11:28:35;25.50;99.90
14236;DHT22;7202;50.718;7.072;2022-08-19T11:31:09;25.60;99.90
14236;DHT22;7202;50.718;7.072;2022-08-19T11:33:41;25.70;99.90
14236;DHT22;7202;50.718;7.072;2022-08-19T11:36:14;25.70;99.90
14236;DHT22;7202;50.718;7.072;2022-08-19T11:38:44;25.70;99.90
14236;DHT22;7202;50.718;7.072;2022-08-19T11:41:17;25.70;99.90
14236;DHT22;7202;50.718;7.072;2022-08-19T11:43:46;25.80;99.90
14236;DHT22;7202;50.718;7.072;2022-08-19T11:46:16;25.90;99.90
14236;DHT22;7202;50.718;7.072;2022-08-19T11:48:45;26.00;99.90
14236;DHT22;7202;50.718;7.072;2022-08-19T11:51:20;26.10;99.90
14236;DHT22;7202;50.718;7.072;2022-08-19T11:53:49;26.00;99.90
14236;DHT22;7202;50.718;7.072;2022-08-19T11:56:19;26.00;99.90
14236;DHT22;7202;50.718;7.072;2022-08-19T11:58:48;26.00;99.90
14236;DHT22;7202;50.718;7.072;2022-08-19T12:01:20;26.00;99.90
14236;DHT22;7202;50.718;7.072;2022-08-19T12:03:50;26.00;99.90
14236;DHT22;7202;50.718;7.072;2022-08-19T12:06:22;26.00;99.90
14236;DHT22;7202;50.718;7.072;2022-08-19T12:08:52;26.10;99.90
14236;DHT22;7202;50.718;7.072;2022-08-19T12:11:22;26.00;99.90
14236;DHT22;7202;50.718;7.072;2022-08-19T12:13:51;25.90;99.90
14236;DHT22;7202;50.718;7.072;2022-08-19T12:16:24;25.80;99.90
14236;DHT22;7202;50.718;7.072;2022-08-19T12:18:54;25.80;99.90
14236;DHT22;7202;50.718;7.072;2022-08-19T12:21:25;25.80;99.90
14236;DHT22;7202;50.718;7.072;2022-08-19T12:23:57;25.80;99.90
14236;DHT22;7202;50.718;7.072;2022-08-19T12:26:27;25.90;99.90
14236;DHT22;7202;50.718;7.072;2022-08-19T12:28:57;26.00;99.90
14236;DHT22;7202;50.718;7.072;2022-08-19T12:31:28;26.10;99.90
14236;DHT22;7202;50.718;7.072;2022-08-19T12:33:58;26.20;99.90
14236;DHT22;7202;50.718;7.072;2022-08-19T12:36:29;26.40;99.90
14236;DHT22;7202;50.718;7.072;2022-08-19T12:38:59;26.50;99.90
14236;DHT22;7202;50.718;7.072;2022-08-19T12:41:29;26.50;99.90
14236;DHT22;7202;50.718;7.072;2022-08-19T12:43:57;26.60;99.90
14236;DHT22;7202;50.718;7.072;2022-08-19T12:46:28;26.60;99.90
14236;DHT22;7202;50.718;7.072;2022-08-19T12:49:00;26.70;99.90
14236;DHT22;7202;50.718;7.072;2022-08-19T12:51:48;26.70;99.90
14236;DHT22;7202;50.718;7.072;2022-08-19T12:54:17;26.80;99.90
14236;DHT22;7202;50.718;7.072;2022-08-19T12:56:46;26.80;99.90
14236;DHT22;7202;50.718;7.072;2022-08-19T12:59:14;26.80;99.90
14236;DHT22;7202;50.718;7.072;2022-08-19T13:01:46;26.80;99.90
14236;DHT22;7202;50.718;7.072;2022-08-19T13:04:14;26.90;99.90
14236;DHT22;7202;50.718;7.072;2022-08-19T13:06:43;26.90;99.90
14236;DHT22;7202;50.718;7.072;2022-08-19T13:09:12;27.00;99.90
14236;DHT22;7202;50.718;7.072;2022-08-19T13:11:41;27.00;99.90
14236;DHT22;7202;50.718;7.072;2022-08-19T13:14:11;27.00;99.90
14236;DHT22;7202;50.718;7.072;2022-08-19T13:16:39;27.00;99.90
14236;DHT22;7202;50.718;7.072;2022-08-19T13:19:10;27.00;99.90
14236;DHT22;7202;50.718;7.072;2022-08-19T13:21:40;27.10;99.90
14236;DHT22;7202;50.718;7.072;2022-08-19T13:24:09;27.10;99.90
14236;DHT22;7202;50.718;7.072;2022-08-19T13:26:37;27.10;99.90
14236;DHT22;7202;50.718;7.072;2022-08-19T13:29:06;27.20;99.90
14236;DHT22;7202;50.718;7.072;2022-08-19T13:31:52;27.20;99.90
14236;DHT22;7202;50.718;7.072;2022-08-19T13:34:46;27.20;99.90
14236;DHT22;7202;50.718;7.072;2022-08-19T13:37:15;27.20;99.90
14236;DHT22;7202;50.718;7.072;2022-08-19T13:40:05;27.20;99.90
14236;DHT22;7202;50.718;7.072;2022-08-19T13:42:33;27.10;99.90
14236;DHT22;7202;50.718;7.072;2022-08-19T13:45:02;27.20;99.90
14236;DHT22;7202;50.718;7.072;2022-08-19T13:47:32;27.20;99.90
14236;DHT22;7202;50.718;7.072;2022-08-19T13:50:04;27.20;99.90
14236;DHT22;7202;50.718;7.072;2022-08-19T13:52:33;27.20;99.90
14236;DHT22;7202;50.718;7.072;2022-08-19T13:55:02;27.20;99.90
14236;DHT22;7202;50.718;7.072;2022-08-19T13:57:31;27.20;99.90
14236;DHT22;7202;50.718;7.072;2022-08-19T14:00:01;27.30;99.90
14236;DHT22;7202;50.718;7.072;2022-08-19T14:02:30;27.30;99.90
14236;DHT22;7202;50.718;7.072;2022-08-19T14:05:03;27.30;99.90
14236;DHT22;7202;50.718;7.072;2022-08-19T14:07:32;27.30;99.90
14236;DHT22;7202;50.718;7.072;2022-08-19T14:10:01;27.30;99.90
14236;DHT22;7202;50.718;7.072;2022-08-19T14:12:30;27.30;99.90
14236;DHT22;7202;50.718;7.072;2022-08-19T14:14:59;27.20;99.90
14236;DHT22;7202;50.718;7.072;2022-08-19T14:17:28;27.20;99.90
14236;DHT22;7202;50.718;7.072;2022-08-19T14:19:57;27.40;99.90
14236;DHT22;7202;50.718;7.072;2022-08-19T14:22:39;27.40;99.90
14236;DHT22;7202;50.718;7.072;2022-08-19T14:25:10;27.50;99.90
14236;DHT22;7202;50.718;7.072;2022-08-19T14:27:39;27.50;99.90
14236;DHT22;7202;50.718;7.072;2022-08-19T14:30:12;27.40;99.90
14236;DHT22;7202;50.718;7.072;2022-08-19T14:32:41;27.30;99.90
14236;DHT22;7202;50.718;7.072;2022-08-19T14:35:11;27.30;99.90
14236;DHT22;7202;50.718;7.072;2022-08-19T14:37:44;27.20;99.90
14236;DHT22;7202;50.718;7.072;2022-08-19T14:40:14;27.30;99.90
14236;DHT22;7202;50.718;7.072;2022-08-19T14:42:43;27.40;99.90
14236;DHT22;7202;50.718;7.072;2022-08-19T14:45:12;27.40;99.90
14236;DHT22;7202;50.718;7.072;2022-08-19T14:47:40;27.50;99.90
14236;DHT22;7202;50.718;7.072;2022-08-19T14:50:12;27.40;99.90
14236;DHT22;7202;50.718;7.072;2022-08-19T14:52:46;27.40;99.90
14236;DHT22;7202;50.718;7.072;2022-08-19T14:55:16;27.40;99.90
14236;DHT22;7202;50.718;7.072;2022-08-19T14:57:45;27.40;99.90
14236;DHT22;7202;50.718;7.072;2022-08-19T15:00:15;27.40;99.90
14236;DHT22;7202;50.718;7.072;2022-08-19T15:02:44;27.50;99.90
14236;DHT22;7202;50.718;7.072;2022-08-19T15:05:13;27.50;99.90
14236;DHT22;7202;50.718;7.072;2022-08-19T15:07:41;27.40;99.90
14236;DHT22;7202;50.718;7.072;2022-08-19T15:10:12;27.40;99.90
14236;DHT22;7202;50.718;7.072;2022-08-19T15:12:41;27.30;99.90
14236;DHT22;7202;50.718;7.072;2022-08-19T15:15:14;27.30;99.90
14236;DHT22;7202;50.718;7.072;2022-08-19T15:17:44;27.20;99.90
14236;DHT22;7202;50.718;7.072;2022-08-19T15:20:16;27.20;99.90
14236;DHT22;7202;50.718;7.072;2022-08-19T15:22:45;27.20;99.90
14236;DHT22;7202;50.718;7.072;2022-08-19T15:25:17;27.20;99.90
14236;DHT22;7202;50.718;7.072;2022-08-19T15:27:47;27.10;99.90
14236;DHT22;7202;50.718;7.072;2022-08-19T15:30:20;27.10;99.90
14236;DHT22;7202;50.718;7.072;2022-08-19T15:32:49;27.00;99.90
14236;DHT22;7202;50.718;7.072;2022-08-19T15:35:20;27.00;99.90
14236;DHT22;7202;50.718;7.072;2022-08-19T15:37:49;27.00;99.90
14236;DHT22;7202;50.718;7.072;2022-08-19T15:40:20;26.90;99.90
14236;DHT22;7202;50.718;7.072;2022-08-19T15:42:49;26.90;99.90
14236;DHT22;7202;50.718;7.072;2022-08-19T15:45:19;26.90;99.90
14236;DHT22;7202;50.718;7.072;2022-08-19T15:47:48;26.90;99.90
14236;DHT22;7202;50.718;7.072;2022-08-19T15:50:19;26.90;99.90
14236;DHT22;7202;50.718;7.072;2022-08-19T15:52:50;26.90;99.90
14236;DHT22;7202;50.718;7.072;2022-08-19T15:55:23;26.90;99.90
14236;DHT22;7202;50.718;7.072;2022-08-19T15:58:01;26.90;99.90
14236;DHT22;7202;50.718;7.072;2022-08-19T16:00:56;26.80;99.90
14236;DHT22;7202;50.718;7.072;2022-08-19T16:03:44;26.70;99.90
14236;DHT22;7202;50.718;7.072;2022-08-19T16:06:30;26.70;99.90
14236;DHT22;7202;50.718;7.072;2022-08-19T16:09:01;26.70;99.90
14236;DHT22;7202;50.718;7.072;2022-08-19T16:11:33;26.60;99.90
14236;DHT22;7202;50.718;7.072;2022-08-19T16:14:06;26.60;99.90